createdAt,value
2022-12-05T00:02:07.819Z,1020.593
2022-12-05T00:07:07.615Z,1020.589
2022-12-05T00:12:07.814Z,1020.605
2022-12-05T00:17:07.701Z,1020.628
2022-12-05T00:22:07.698Z,1020.604
2022-12-05T00:27:07.686Z,1020.575
2022-12-05T00:32:07.903Z,1020.624
2022-12-05T00:37:07.673Z,1020.564
2022-12-05T00:42:07.867Z,1020.596
2022-12-05T00:47:07.629Z,1020.676
2022-12-05T00:52:07.557Z,1020.631
2022-12-05T00:57:08.077Z,1020.603
2022-12-05T01:02:08.107Z,1020.588
2022-12-05T01:07:07.617Z,1020.68
2022-12-05T01:12:12.667Z,1020.52
2022-12-05T01:17:08.097Z,1020.504
2022-12-05T01:22:07.743Z,1020.533
2022-12-05T01:27:09.058Z,1020.561
2022-12-05T01:32:11.290Z,1020.569
2022-12-05T01:37:08.126Z,1020.53
2022-12-05T01:42:11.007Z,1020.625
2022-12-05T01:47:10.507Z,1020.59
2022-12-05T01:52:25.401Z,1020.559
2022-12-05T01:57:10.264Z,1020.573
2022-12-05T02:02:08.365Z,1020.527
2022-12-05T02:07:08.480Z,1020.495
2022-12-05T02:12:08.540Z,1020.486
2022-12-05T02:17:14.394Z,1020.49
2022-12-05T02:22:28.630Z,1020.498
2022-12-05T02:27:16.353Z,1020.516
2022-12-05T02:32:11.149Z,1020.495
2022-12-05T02:37:14.962Z,1020.567
2022-12-05T02:42:12.155Z,1020.586
2022-12-05T02:47:09.588Z,1020.521
2022-12-05T02:52:11.688Z,1020.59
2022-12-05T02:57:11.401Z,1020.614
2022-12-05T03:02:09.130Z,1020.6
2022-12-05T03:07:15.337Z,1020.611
2022-12-05T03:12:13.063Z,1020.663
2022-12-05T03:17:15.541Z,1020.665
2022-12-05T03:22:13.303Z,1020.735
2022-12-05T03:27:13.814Z,1020.734
2022-12-05T03:32:12.752Z,1020.796
2022-12-05T03:37:09.405Z,1020.827
2022-12-05T03:42:13.888Z,1020.925
2022-12-05T03:47:09.951Z,1020.901
2022-12-05T03:52:09.503Z,1020.898
2022-12-05T03:57:10.023Z,1020.984
2022-12-05T04:02:15.450Z,1020.979
2022-12-05T04:07:12.677Z,1021.005
2022-12-05T04:12:13.535Z,1020.959
2022-12-05T04:17:09.806Z,1020.981
2022-12-05T04:22:08.163Z,1020.96
2022-12-05T04:27:16.858Z,1020.964
2022-12-05T04:32:12.274Z,1020.964
2022-12-05T04:37:10.920Z,1020.904
2022-12-05T04:42:27.984Z,1020.941
2022-12-05T04:52:29.001Z,1020.829
2022-12-05T04:57:46.472Z,1020.827
2022-12-05T05:02:30.104Z,1020.894
2022-12-05T05:09:15.735Z,1020.929
2022-12-05T05:12:45.176Z,1020.907
2022-12-05T05:17:15.013Z,1020.937
2022-12-05T05:27:28.185Z,1020.929
2022-12-05T05:32:13.829Z,1020.882
2022-12-05T05:37:24.849Z,1020.921
2022-12-05T05:42:08.072Z,1020.962
2022-12-05T05:47:12.119Z,1020.958
2022-12-05T05:52:31.707Z,1021.009
2022-12-05T05:57:35.398Z,1020.95
2022-12-05T06:02:11.226Z,1020.893
2022-12-05T06:07:14.547Z,1020.845
2022-12-05T06:12:28.444Z,1020.896
2022-12-05T06:17:24.977Z,1020.909
2022-12-05T06:25:02.321Z,1020.959
2022-12-05T06:38:21.003Z,1021.029
2022-12-05T06:40:23.271Z,1020.984
2022-12-05T06:45:24.472Z,1021.089
2022-12-05T06:48:51.819Z,1021.069
2022-12-05T06:54:56.218Z,1021.115
2022-12-05T06:59:21.045Z,1021.099
2022-12-05T07:03:17.824Z,1021.097
2022-12-05T07:08:09.241Z,1021.064
2022-12-05T07:12:44.325Z,1021.163
2022-12-05T07:17:49.744Z,1021.237
2022-12-05T07:24:40.192Z,1021.27
2022-12-05T07:27:44.179Z,1021.349
2022-12-05T07:37:59.959Z,1021.303
2022-12-05T07:42:26.596Z,1021.387
2022-12-05T07:47:24.765Z,1021.387
2022-12-05T07:52:25.237Z,1021.383
2022-12-05T07:57:29.153Z,1021.407
2022-12-05T08:02:27.718Z,1021.468
2022-12-05T08:07:24.518Z,1021.524
2022-12-05T08:12:27.927Z,1021.538
2022-12-05T08:17:24.392Z,1021.541
2022-12-05T08:22:25.902Z,1021.572
2022-12-05T08:27:25.444Z,1021.628
2022-12-05T08:32:37.027Z,1021.768
2022-12-05T08:38:36.325Z,1021.789
2022-12-05T08:42:23.766Z,1021.768
2022-12-05T08:47:23.668Z,1021.799
2022-12-05T08:52:25.147Z,1021.808
2022-12-05T08:57:24.070Z,1021.85
2022-12-05T09:02:23.634Z,1021.829
2022-12-05T09:07:24.076Z,1021.855
2022-12-05T09:12:28.323Z,1021.864
2022-12-05T09:17:27.227Z,1021.907
2022-12-05T09:22:43.123Z,1021.946
2022-12-05T09:38:57.490Z,1022.114
2022-12-05T09:44:15.031Z,1022.126
2022-12-05T09:48:34.619Z,1022.16
2022-12-05T09:54:04.349Z,1022.175
2022-12-05T09:58:57.292Z,1022.173
2022-12-05T10:18:06.492Z,1022.161
2022-12-05T10:19:04.952Z,1022.13
2022-12-05T10:24:09.977Z,1022.082
2022-12-05T10:26:48.792Z,1022.087
2022-12-05T10:31:46.775Z,1022.069
2022-12-05T10:36:31.174Z,1022.025
2022-12-05T10:41:14.981Z,1022.011
2022-12-05T10:46:17.464Z,1021.914
2022-12-05T10:51:19.319Z,1021.965
2022-12-05T10:56:30.209Z,1021.981
2022-12-05T11:01:18.363Z,1021.993
2022-12-05T11:06:19.952Z,1021.976
2022-12-05T11:11:25.726Z,1022.003
2022-12-05T11:16:24.324Z,1022.016
2022-12-05T11:21:21.494Z,1021.955
2022-12-05T11:26:20.997Z,1021.998
2022-12-05T11:31:23.861Z,1022.014
2022-12-05T11:36:39.816Z,1022.034
2022-12-05T11:41:29.827Z,1022.054
2022-12-05T11:46:26.673Z,1022.057
2022-12-05T11:51:22.040Z,1022.038
2022-12-05T11:56:26.837Z,1022.047
2022-12-05T12:01:21.232Z,1021.94
2022-12-05T12:06:25.401Z,1021.911
2022-12-05T12:11:17.774Z,1021.957
2022-12-05T12:16:19.112Z,1021.879
2022-12-05T12:21:26.939Z,1021.891
2022-12-05T12:26:19.416Z,1021.851
2022-12-05T12:31:25.960Z,1021.9
2022-12-05T12:36:19.632Z,1021.839
2022-12-05T12:41:15.466Z,1021.867
2022-12-05T12:46:20.679Z,1021.841
2022-12-05T12:51:15.715Z,1021.867
2022-12-05T12:56:19.462Z,1021.763
2022-12-05T13:01:15.854Z,1021.722
2022-12-05T13:06:21.172Z,1021.704
2022-12-05T13:11:14.255Z,1021.69
2022-12-05T13:16:13.496Z,1021.661
2022-12-05T13:21:14.503Z,1021.637
2022-12-05T13:26:16.943Z,1021.647
2022-12-05T13:31:16.571Z,1021.603
2022-12-05T13:36:25.268Z,1021.66
2022-12-05T13:41:26.988Z,1021.73
2022-12-05T13:46:14.401Z,1021.66
2022-12-05T13:51:15.474Z,1021.68
2022-12-05T13:56:23.010Z,1021.71
2022-12-05T14:01:24.441Z,1021.751
2022-12-05T14:06:12.610Z,1021.755
2022-12-05T14:11:15.756Z,1021.779
2022-12-05T14:16:23.393Z,1021.802
2022-12-05T14:21:17.148Z,1021.787
2022-12-05T14:26:21.673Z,1021.843
2022-12-05T14:31:25.633Z,1021.903
2022-12-05T14:36:20.327Z,1021.894
2022-12-05T14:41:26.888Z,1021.872
2022-12-05T14:46:18.822Z,1021.911
2022-12-05T14:51:28.221Z,1021.93
2022-12-05T14:56:23.049Z,1021.9
2022-12-05T15:01:21.616Z,1021.953
2022-12-05T15:06:16.043Z,1021.999
2022-12-05T15:11:25.259Z,1022
2022-12-05T15:16:18.447Z,1021.993
2022-12-05T15:21:17.008Z,1021.998
2022-12-05T15:26:45.141Z,1022.067
2022-12-05T15:31:15.744Z,1022.078
2022-12-05T15:36:13.052Z,1022.122
2022-12-05T15:41:19.652Z,1022.151
2022-12-05T15:46:28.832Z,1022.206
2022-12-05T15:51:13.390Z,1022.203
2022-12-05T15:56:20.649Z,1022.202
2022-12-05T16:01:15.925Z,1022.236
2022-12-05T16:06:16.153Z,1022.211
2022-12-05T16:11:16.432Z,1022.179
2022-12-05T16:16:15.707Z,1022.232
2022-12-05T16:21:51.802Z,1022.273
2022-12-05T16:26:31.497Z,1022.294
2022-12-05T16:31:27.573Z,1022.266
2022-12-05T16:36:28.337Z,1022.218
2022-12-05T16:41:36.099Z,1022.27
2022-12-05T16:46:48.970Z,1022.287
2022-12-05T16:51:29.040Z,1022.275
2022-12-05T16:56:30.464Z,1022.295
2022-12-05T17:01:27.929Z,1022.261
2022-12-05T17:06:27.807Z,1022.251
2022-12-05T17:11:28.919Z,1022.246
2022-12-05T17:16:27.452Z,1022.287
2022-12-05T17:21:28.851Z,1022.305
2022-12-05T17:26:26.991Z,1022.251
2022-12-05T17:31:32.668Z,1022.352
2022-12-05T17:36:27.235Z,1022.414
2022-12-05T17:41:27.553Z,1022.429
2022-12-05T17:46:27.692Z,1022.419
2022-12-05T17:51:27.306Z,1022.49
2022-12-05T17:56:27.198Z,1022.553
2022-12-05T18:01:28.378Z,1022.518
2022-12-05T18:06:28.740Z,1022.565
2022-12-05T18:11:27.360Z,1022.6
2022-12-05T18:16:27.256Z,1022.594
2022-12-05T18:21:29.183Z,1022.626
2022-12-05T18:26:29.665Z,1022.613
2022-12-05T18:31:27.128Z,1022.61
2022-12-05T18:36:28.551Z,1022.663
2022-12-05T18:57:50.487Z,1022.711
2022-12-05T19:02:51.546Z,1022.776
2022-12-05T19:07:50.291Z,1022.785
2022-12-05T19:12:57.470Z,1022.802
2022-12-05T19:17:51.288Z,1022.839
2022-12-05T19:23:00.586Z,1022.842
2022-12-05T19:27:50.569Z,1022.878
2022-12-05T19:32:50.345Z,1022.95
2022-12-05T19:37:52.457Z,1022.974
2022-12-05T19:42:50.473Z,1022.958
2022-12-05T19:47:50.304Z,1022.969
2022-12-05T19:52:50.618Z,1022.923
2022-12-05T19:57:51.302Z,1022.975
2022-12-05T20:02:50.686Z,1022.998
2022-12-05T20:10:32.919Z,1023.008
2022-12-05T20:14:29.322Z,1023.01
2022-12-05T20:27:49.855Z,1023.039
2022-12-05T20:31:45.310Z,1023.01
2022-12-05T20:36:45.296Z,1023.12
2022-12-05T20:52:19.958Z,1023.046
2022-12-05T21:01:48.166Z,1023.048
2022-12-05T21:06:12.020Z,1023.038
2022-12-05T21:10:37.658Z,1023.009
2022-12-05T21:15:56.655Z,1022.999
2022-12-05T21:21:04.589Z,1022.962
2022-12-05T21:25:57.298Z,1022.93
2022-12-05T21:30:35.259Z,1022.919
2022-12-05T21:35:32.428Z,1022.861
2022-12-05T21:40:32.308Z,1022.851
2022-12-05T21:45:32.366Z,1022.778
2022-12-05T21:50:32.407Z,1022.806
2022-12-05T21:55:33.339Z,1022.789
2022-12-05T22:00:32.300Z,1022.85
2022-12-05T22:05:32.957Z,1022.89
2022-12-05T22:10:34.639Z,1022.879
2022-12-05T22:15:32.402Z,1022.873
2022-12-05T22:20:33.472Z,1022.955
2022-12-05T22:25:33.801Z,1022.993
2022-12-05T22:30:32.249Z,1022.983
2022-12-05T22:35:32.563Z,1023.058
2022-12-05T22:40:32.182Z,1023.064
2022-12-05T22:45:32.489Z,1023.102
2022-12-05T22:50:32.353Z,1023.09
2022-12-05T22:55:32.252Z,1023.097
2022-12-05T23:00:35.544Z,1023.007
2022-12-05T23:05:32.601Z,1022.917
2022-12-05T23:10:34.322Z,1022.968
2022-12-05T23:15:32.781Z,1022.925
2022-12-05T23:20:33.652Z,1022.862
2022-12-05T23:25:32.387Z,1022.821
2022-12-05T23:30:33.886Z,1022.837
2022-12-05T23:35:32.372Z,1022.814
2022-12-05T23:40:32.600Z,1022.824
2022-12-05T23:45:32.473Z,1022.774
2022-12-05T23:50:32.583Z,1022.83
2022-12-05T23:55:32.872Z,1022.809
